Time;durP1;ratioP1;P1;durP2;ratioP2;P2;SDS_P1;SDS_P2;PMS_P1;PMS_P2;Temp;Humidity;BMP_temperature;BMP_pressure;BME280_temperature;BME280_humidity;BME280_pressure;Samples;Min_cycle;Max_cycle;Signal;HPM_P1;HPM_P2
2022/10/05 00:02:21;;;;;;;4.10;3.80;;;9.50;99.90;;;;;;4991486;28;20172;-85
2022/10/05 00:04:51;;;;;;;5.20;3.73;;;9.40;99.90;;;;;;4980981;28;20178;-85
2022/10/05 00:07:22;;;;;;;4.60;4.03;;;9.40;99.90;;;;;;4977623;28;20191;-86
2022/10/05 00:09:58;;;;;;;3.87;3.57;;;9.40;99.90;;;;;;5013870;28;20175;-85
2022/10/05 00:12:28;;;;;;;5.43;4.20;;;9.40;99.90;;;;;;4980917;28;20178;-86
2022/10/05 00:14:59;;;;;;;4.13;3.73;;;9.40;99.90;;;;;;4981577;28;20191;-86
2022/10/05 00:17:27;;;;;;;4.47;3.60;;;9.40;99.90;;;;;;4980846;28;20253;-86
2022/10/05 00:19:54;;;;;;;4.27;3.83;;;9.30;99.90;;;;;;4996656;28;20211;-86
2022/10/05 00:22:32;;;;;;;4.57;4.17;;;9.20;99.90;;;;;;4980663;28;20195;-86
2022/10/05 00:25:00;;;;;;;8.33;4.00;;;9.20;99.90;;;;;;4980905;28;20178;-85
2022/10/05 00:27:36;;;;;;;6.13;4.67;;;9.20;99.90;;;;;;4980830;28;20202;-85
2022/10/05 00:30:15;;;;;;;4.20;3.80;;;9.20;99.90;;;;;;4980734;28;20179;-85
2022/10/05 00:32:41;;;;;;;5.57;4.73;;;9.20;99.90;;;;;;4977513;28;20243;-85
2022/10/05 00:35:08;;;;;;;4.50;4.10;;;9.20;99.90;;;;;;4977890;28;20183;-85
2022/10/05 00:37:34;;;;;;;5.07;4.57;;;9.10;99.90;;;;;;5029870;28;20190;-85
2022/10/05 00:40:00;;;;;;;5.03;4.53;;;9.10;99.90;;;;;;4980208;28;20207;-86
2022/10/05 00:42:35;;;;;;;5.20;4.30;;;9.10;99.90;;;;;;4980459;28;20176;-85
2022/10/05 00:45:09;;;;;;;5.10;4.20;;;9.00;99.90;;;;;;4980134;28;20174;-86
2022/10/05 00:47:44;;;;;;;4.50;4.10;;;9.00;99.90;;;;;;4995908;28;20179;-86
2022/10/05 00:50:19;;;;;;;4.27;3.87;;;9.00;99.90;;;;;;4996793;28;20178;-85
2022/10/05 00:52:52;;;;;;;4.63;4.23;;;8.90;99.90;;;;;;4981513;28;20198;-85
2022/10/05 00:55:30;;;;;;;4.10;3.70;;;8.80;99.90;;;;;;5013432;28;20167;-85
2022/10/05 00:58:17;;;;;;;4.80;4.30;;;8.80;99.90;;;;;;4980352;28;20175;-85
2022/10/05 01:01:11;;;;;;;4.63;4.23;;;8.80;99.90;;;;;;4979319;28;20225;-85
2022/10/05 01:04:03;;;;;;;4.93;3.90;;;8.80;99.90;;;;;;5012754;28;20175;-85
2022/10/05 01:06:50;;;;;;;4.37;3.67;;;8.90;99.90;;;;;;4980105;28;20199;-85
2022/10/05 01:09:38;;;;;;;4.30;3.90;;;8.90;99.90;;;;;;4995993;28;20190;-85
2022/10/05 01:12:16;;;;;;;4.00;3.70;;;8.80;99.90;;;;;;4996441;28;20187;-85
2022/10/05 01:15:01;;;;;;;4.33;3.87;;;8.90;99.90;;;;;;4995647;28;20194;-85
2022/10/05 01:17:28;;;;;;;4.30;3.83;;;8.90;99.90;;;;;;5011884;28;20246;-85
2022/10/05 01:20:14;;;;;;;3.90;3.60;;;8.80;99.90;;;;;;4996235;28;20203;-85
2022/10/05 01:22:49;;;;;;;4.90;4.40;;;8.80;99.90;;;;;;4997337;28;20206;-85
2022/10/05 01:25:40;;;;;;;5.83;3.97;;;8.80;99.90;;;;;;4995973;28;20183;-86
2022/10/05 01:28:20;;;;;;;8.10;4.23;;;8.70;99.90;;;;;;4979902;28;20178;-85
2022/10/05 01:30:58;;;;;;;5.00;4.50;;;8.70;99.90;;;;;;4995815;28;20269;-85
2022/10/05 01:33:42;;;;;;;5.50;4.37;;;8.70;99.90;;;;;;4979979;28;20221;-86
2022/10/05 01:36:20;;;;;;;5.10;4.20;;;8.70;99.90;;;;;;4995816;28;20226;-86
2022/10/05 01:39:25;;;;;;;4.20;3.80;;;8.70;99.90;;;;;;4995500;28;20179;-85
2022/10/05 01:42:27;;;;;;;5.57;4.60;;;8.70;99.90;;;;;;4995691;28;20186;-86
2022/10/05 01:45:09;;;;;;;5.80;4.30;;;8.60;99.90;;;;;;4917656;29;20272;-85
2022/10/05 01:47:47;;;;;;;5.13;4.00;;;8.70;99.90;;;;;;5020949;28;20187;-86
2022/10/05 01:50:43;;;;;;;6.10;3.90;;;8.60;99.90;;;;;;5025444;28;20178;-85
2022/10/05 01:53:42;;;;;;;6.30;3.90;;;8.60;99.90;;;;;;4996243;28;20178;-85
2022/10/05 01:56:40;;;;;;;4.77;4.00;;;8.60;99.90;;;;;;5000896;28;20195;-85
2022/10/05 01:59:28;;;;;;;3.60;3.30;;;8.60;99.90;;;;;;4995187;28;20669;-85
2022/10/05 02:02:08;;;;;;;3.80;3.40;;;8.50;99.90;;;;;;4979293;28;20226;-86
2022/10/05 02:04:41;;;;;;;3.50;3.20;;;8.40;99.90;;;;;;4979326;28;20174;-86
2022/10/05 02:07:13;;;;;;;3.43;3.13;;;8.30;99.90;;;;;;4979325;28;20747;-86
2022/10/05 02:09:53;;;;;;;3.40;3.10;;;8.30;99.90;;;;;;4995397;28;20262;-85
2022/10/05 02:12:23;;;;;;;3.80;3.40;;;8.20;99.90;;;;;;4979996;28;20670;-85
2022/10/05 02:14:56;;;;;;;3.33;3.03;;;8.10;99.90;;;;;;4979182;28;20198;-85
2022/10/05 02:17:37;;;;;;;3.30;3.00;;;8.10;99.90;;;;;;4995379;28;20204;-86
2022/10/05 02:20:09;;;;;;;3.77;3.47;;;8.10;99.90;;;;;;4975768;28;20208;-85
2022/10/05 02:22:45;;;;;;;4.30;3.43;;;8.10;99.90;;;;;;5008489;28;20278;-85
2022/10/05 02:25:19;;;;;;;3.23;2.93;;;8.10;99.90;;;;;;4995419;28;20651;-85
2022/10/05 02:27:55;;;;;;;3.97;3.57;;;8.10;99.90;;;;;;4975803;28;20168;-86
2022/10/05 02:30:23;;;;;;;4.93;3.30;;;8.10;99.90;;;;;;4992550;28;20195;-85
2022/10/05 02:33:18;;;;;;;3.23;2.80;;;8.10;99.90;;;;;;4979752;28;20270;-85
2022/10/05 02:35:44;;;;;;;4.77;3.20;;;8.10;99.90;;;;;;4978901;28;20199;-85
2022/10/05 02:38:18;;;;;;;5.77;3.27;;;8.10;99.90;;;;;;4975443;28;20191;-86
2022/10/05 02:40:57;;;;;;;3.60;3.13;;;8.10;99.90;;;;;;5010213;28;20686;-86
2022/10/05 02:43:52;;;;;;;3.73;3.00;;;8.10;99.90;;;;;;4993791;28;20261;-86
2022/10/05 02:46:49;;;;;;;5.50;3.67;;;8.10;99.90;;;;;;4977232;28;20206;-85
2022/10/05 02:49:36;;;;;;;3.33;2.90;;;8.00;99.90;;;;;;4995293;28;20175;-85
2022/10/05 02:52:33;;;;;;;5.40;3.90;;;8.00;99.90;;;;;;5008823;28;20171;-85
2022/10/05 02:55:16;;;;;;;5.07;3.40;;;8.00;99.90;;;;;;5009247;28;20180;-86
2022/10/05 02:58:08;;;;;;;4.10;3.50;;;7.90;99.90;;;;;;4978830;28;20181;-85
2022/10/05 03:00:49;;;;;;;4.23;3.17;;;7.90;99.90;;;;;;4984536;28;20237;-85
2022/10/05 03:03:43;;;;;;;4.37;3.20;;;7.90;99.90;;;;;;4995056;28;20172;-85
2022/10/05 03:06:19;;;;;;;4.20;3.50;;;7.90;99.90;;;;;;5001437;28;20214;-85
2022/10/05 03:09:07;;;;;;;3.50;3.07;;;7.80;99.90;;;;;;4978598;28;20266;-85
2022/10/05 03:11:54;;;;;;;4.57;3.97;;;7.70;99.90;;;;;;4979608;28;20187;-85
2022/10/05 03:14:20;;;;;;;4.63;4.20;;;7.60;99.90;;;;;;5004981;28;20201;-85
2022/10/05 03:17:07;;;;;;;5.53;4.03;;;7.50;99.90;;;;;;5014428;28;20671;-85
2022/10/05 03:19:49;;;;;;;5.37;4.60;;;7.40;99.90;;;;;;4996893;28;20172;-85
2022/10/05 03:22:37;;;;;;;5.13;4.20;;;7.40;99.90;;;;;;4981910;28;20666;-85
2022/10/05 03:25:21;;;;;;;5.07;4.50;;;7.40;99.90;;;;;;4981747;28;20203;-85
2022/10/05 03:28:20;;;;;;;5.70;4.30;;;7.40;99.90;;;;;;4997826;28;20168;-85
2022/10/05 03:31:01;;;;;;;10.40;3.87;;;7.30;99.90;;;;;;4981547;28;20262;-85
2022/10/05 03:33:52;;;;;;;11.60;4.10;;;7.30;99.90;;;;;;4998129;28;20273;-85
2022/10/05 03:36:45;;;;;;;8.97;5.00;;;7.10;99.90;;;;;;4997458;28;20266;-85
2022/10/05 03:39:29;;;;;;;5.90;4.30;;;7.10;99.90;;;;;;4997939;28;20202;-85
2022/10/05 03:42:22;;;;;;;4.93;4.10;;;7.10;99.90;;;;;;4997395;28;20183;-85
2022/10/05 03:44:57;;;;;;;4.23;3.83;;;7.10;99.90;;;;;;5021792;28;20201;-85
2022/10/05 03:47:49;;;;;;;4.10;3.70;;;7.10;99.90;;;;;;4977478;28;20194;-85
2022/10/05 03:50:39;;;;;;;4.40;3.90;;;7.10;99.90;;;;;;4995135;28;20173;-85
2022/10/05 03:53:18;;;;;;;4.40;4.00;;;7.20;99.90;;;;;;4981393;28;20269;-85
2022/10/05 03:55:48;;;;;;;5.50;4.20;;;7.30;99.90;;;;;;4980690;28;20253;-85
2022/10/05 03:58:30;;;;;;;4.87;4.27;;;7.30;99.90;;;;;;4997262;28;20205;-85
2022/10/05 04:01:02;;;;;;;5.90;3.80;;;7.40;99.90;;;;;;4981268;28;20201;-85
2022/10/05 04:03:34;;;;;;;4.87;3.73;;;7.40;99.90;;;;;;4997216;28;20179;-86
2022/10/05 04:06:15;;;;;;;5.77;3.90;;;7.40;99.90;;;;;;4998285;28;20209;-85
2022/10/05 04:08:52;;;;;;;7.13;4.50;;;7.40;99.90;;;;;;4980486;28;20217;-86
2022/10/05 04:11:49;;;;;;;7.33;4.07;;;7.40;99.90;;;;;;4995889;28;20281;-86
2022/10/05 04:14:45;;;;;;;12.63;4.60;;;7.40;99.90;;;;;;5032914;28;20193;-86
2022/10/05 04:17:33;;;;;;;17.97;4.43;;;7.30;99.90;;;;;;4977540;28;20207;-86
2022/10/05 04:20:34;;;;;;;6.50;4.20;;;7.30;99.90;;;;;;5015672;28;20228;-86
2022/10/05 04:23:46;;;;;;;8.93;4.23;;;7.30;99.90;;;;;;4980562;28;20185;-86
2022/10/05 04:26:25;;;;;;;5.33;4.20;;;7.20;99.90;;;;;;4934262;29;20215;-85
2022/10/05 04:29:12;;;;;;;10.83;4.20;;;7.10;99.90;;;;;;4987316;28;20194;-85
2022/10/05 04:31:53;;;;;;;6.27;5.10;;;7.20;99.90;;;;;;4980334;28;20187;-85
2022/10/05 04:34:31;;;;;;;7.17;4.67;;;7.00;99.90;;;;;;4980370;28;20201;-85
2022/10/05 04:37:05;;;;;;;10.87;4.37;;;7.00;99.90;;;;;;4996331;28;20206;-85
2022/10/05 04:39:39;;;;;;;8.07;3.50;;;6.90;99.90;;;;;;4980092;28;20189;-85
2022/10/05 04:42:21;;;;;;;9.47;3.33;;;6.90;99.90;;;;;;4980120;28;20274;-85
2022/10/05 04:44:47;;;;;;;7.60;3.70;;;6.70;99.90;;;;;;4980377;28;20623;-85
2022/10/05 04:47:16;;;;;;;16.50;3.30;;;6.60;99.90;;;;;;4997252;28;20193;-85
2022/10/05 04:50:09;;;;;;;3.30;3.00;;;6.50;99.90;;;;;;4990197;28;20182;-85
2022/10/05 04:52:41;;;;;;;3.20;3.00;;;6.50;99.90;;;;;;4981198;28;20191;-85
2022/10/05 04:55:20;;;;;;;4.03;2.83;;;6.40;99.90;;;;;;4981137;28;20232;-85
2022/10/05 04:58:09;;;;;;;3.10;2.70;;;6.40;99.90;;;;;;4980698;28;20564;-85
2022/10/05 05:01:02;;;;;;;7.73;2.73;;;6.40;99.90;;;;;;4976717;28;20199;-85
2022/10/05 05:03:54;;;;;;;2.67;2.47;;;6.30;99.90;;;;;;5009518;28;20166;-86
2022/10/05 05:06:59;;;;;;;8.73;3.00;;;6.30;99.90;;;;;;4993459;28;20207;-86
2022/10/05 05:09:43;;;;;;;11.20;2.37;;;6.30;99.90;;;;;;5009150;28;20220;-86
2022/10/05 05:12:21;;;;;;;9.87;3.23;;;6.10;99.90;;;;;;4977174;28;20764;-85
2022/10/05 05:15:05;;;;;;;3.30;3.00;;;6.00;99.90;;;;;;4993171;28;20178;-85
2022/10/05 05:18:00;;;;;;;14.77;3.87;;;6.00;99.90;;;;;;5009124;28;20174;-87
2022/10/05 05:20:38;;;;;;;4.27;3.53;;;6.00;99.90;;;;;;5009341;28;20213;-87
2022/10/05 05:23:34;;;;;;;3.67;3.37;;;5.90;99.90;;;;;;4976848;28;20228;-87
2022/10/05 05:26:22;;;;;;;3.77;3.47;;;5.90;99.90;;;;;;4996017;28;20427;-86
2022/10/05 05:29:19;;;;;;;4.50;3.60;;;6.00;99.90;;;;;;4979663;28;20197;-86
2022/10/05 05:32:06;;;;;;;3.63;3.33;;;6.00;99.90;;;;;;4980181;28;20184;-86
2022/10/05 05:35:01;;;;;;;3.30;3.00;;;6.10;99.90;;;;;;4996020;28;20173;-86
2022/10/05 05:37:59;;;;;;;3.57;3.27;;;6.10;99.90;;;;;;4980094;28;20210;-87
2022/10/05 05:40:32;;;;;;;3.40;3.10;;;6.10;99.90;;;;;;4979789;28;20211;-87
2022/10/05 05:43:15;;;;;;;4.13;3.73;;;6.10;99.90;;;;;;4979977;28;20177;-87
2022/10/05 05:46:25;;;;;;;4.20;3.80;;;6.10;99.90;;;;;;4995321;28;20200;-86
2022/10/05 05:48:54;;;;;;;4.77;3.90;;;6.10;99.90;;;;;;4965633;28;20265;-87
2022/10/05 05:51:33;;;;;;;4.20;3.80;;;6.00;99.90;;;;;;4919003;28;20194;-87
2022/10/05 05:54:49;;;;;;;5.07;4.57;;;5.90;99.90;;;;;;4977390;28;20239;-87
2022/10/05 05:57:28;;;;;;;4.47;4.07;;;6.00;99.90;;;;;;5004233;28;20208;-87
2022/10/05 06:00:07;;;;;;;4.10;3.70;;;6.10;99.90;;;;;;5013308;28;20205;-87
2022/10/05 06:03:17;;;;;;;4.70;4.20;;;6.20;99.90;;;;;;5029950;28;20246;-87
2022/10/05 06:05:52;;;;;;;4.27;3.87;;;6.30;99.90;;;;;;5029812;28;20200;-87
2022/10/05 06:08:35;;;;;;;6.27;3.97;;;6.40;99.90;;;;;;4980809;28;20181;-86
2022/10/05 06:11:27;;;;;;;5.00;4.20;;;6.50;99.90;;;;;;4993410;28;20192;-86
2022/10/05 06:14:02;;;;;;;5.00;4.10;;;6.50;99.90;;;;;;5009704;28;20179;-86
2022/10/05 06:16:37;;;;;;;6.13;3.87;;;6.60;99.90;;;;;;5000840;28;20266;-86
2022/10/05 06:19:12;;;;;;;6.67;4.57;;;6.70;99.90;;;;;;5017413;28;20243;-86
2022/10/05 06:21:38;;;;;;;5.83;4.70;;;6.80;99.90;;;;;;4995336;28;20211;-87
2022/10/05 06:24:13;;;;;;;8.60;4.33;;;6.80;99.90;;;;;;4979261;28;20174;-86
2022/10/05 06:27:03;;;;;;;6.73;5.00;;;6.70;99.90;;;;;;4979221;28;20684;-86
2022/10/05 06:29:48;;;;;;;7.83;5.50;;;6.70;99.90;;;;;;4979571;28;20223;-86
2022/10/05 06:32:43;;;;;;;6.47;5.07;;;6.70;99.90;;;;;;4979161;28;20179;-87
2022/10/05 06:35:28;;;;;;;5.83;5.23;;;6.80;99.90;;;;;;4962256;28;20194;-86
2022/10/05 06:38:09;;;;;;;6.57;4.43;;;6.90;99.90;;;;;;4979253;28;20181;-86
2022/10/05 06:41:06;;;;;;;5.70;4.37;;;6.90;99.90;;;;;;4995547;28;20203;-86
2022/10/05 06:43:58;;;;;;;5.87;4.20;;;7.00;99.90;;;;;;4979032;28;20192;-86
2022/10/05 06:46:46;;;;;;;5.60;4.20;;;7.10;99.90;;;;;;4992387;28;20209;-85
2022/10/05 06:49:27;;;;;;;6.97;5.10;;;7.20;99.90;;;;;;5013657;28;20559;-86
2022/10/05 06:52:34;;;;;;;11.50;8.10;;;7.30;99.90;;;;;;4981450;28;20187;-86
2022/10/05 06:55:24;;;;;;;7.10;6.00;;;7.40;99.90;;;;;;4981128;28;20187;-85
2022/10/05 06:58:04;;;;;;;7.33;5.23;;;7.50;99.90;;;;;;5012990;28;20183;-86
2022/10/05 07:00:36;;;;;;;5.30;4.70;;;7.60;99.90;;;;;;4996961;28;20294;-86
2022/10/05 07:03:02;;;;;;;7.30;4.53;;;7.80;99.90;;;;;;4980585;28;20187;-85
2022/10/05 07:06:01;;;;;;;5.67;3.93;;;7.90;99.90;;;;;;5012765;28;20293;-85
2022/10/05 07:08:43;;;;;;;5.90;4.63;;;8.00;99.90;;;;;;4996523;28;20185;-86
2022/10/05 07:11:33;;;;;;;5.70;4.70;;;8.20;99.90;;;;;;4980358;28;20232;-85
2022/10/05 07:14:26;;;;;;;8.47;5.10;;;8.30;99.90;;;;;;4980447;28;20186;-85
2022/10/05 07:17:14;;;;;;;4.73;4.30;;;8.50;99.90;;;;;;4980032;28;20210;-86
2022/10/05 07:19:54;;;;;;;6.60;4.10;;;8.60;99.90;;;;;;5012544;28;20180;-86
2022/10/05 07:22:39;;;;;;;4.73;3.90;;;8.70;99.90;;;;;;4980188;28;20191;-85
2022/10/05 07:25:22;;;;;;;5.10;4.03;;;8.80;99.90;;;;;;4996424;28;20176;-85
2022/10/05 07:27:53;;;;;;;6.13;4.53;;;8.90;99.90;;;;;;4975990;28;20187;-86
2022/10/05 07:30:20;;;;;;;6.17;4.97;;;9.00;99.90;;;;;;4976510;28;20267;-85
2022/10/05 07:33:11;;;;;;;5.47;4.90;;;9.10;99.90;;;;;;4991707;28;20252;-86
2022/10/05 07:39:36;;;;;;;4.83;3.83;;;9.40;99.90;;;;;;5009043;28;20263;-86
2022/10/05 07:42:21;;;;;;;6.20;4.40;;;9.50;99.90;;;;;;4977110;28;20250;-84
2022/10/05 07:45:04;;;;;;;5.20;4.20;;;9.70;99.90;;;;;;4999449;28;20676;-84
2022/10/05 07:47:45;;;;;;;5.43;4.03;;;9.70;99.90;;;;;;5012474;28;20183;-83
2022/10/05 07:50:44;;;;;;;5.53;4.63;;;9.80;99.90;;;;;;5013092;28;20183;-84
2022/10/05 07:53:17;;;;;;;5.90;4.73;;;9.90;99.90;;;;;;4993371;28;20194;-84
2022/10/05 07:55:50;;;;;;;5.17;4.57;;;10.00;99.90;;;;;;5012456;28;20199;-84
2022/10/05 07:58:29;;;;;;;5.17;4.67;;;10.10;99.90;;;;;;5012187;28;20195;-84
2022/10/05 08:01:03;;;;;;;5.40;4.60;;;10.20;99.90;;;;;;4996562;28;20301;-84
2022/10/05 08:03:59;;;;;;;5.30;4.80;;;10.30;99.90;;;;;;5012788;28;20262;-84
2022/10/05 08:06:26;;;;;;;5.43;4.60;;;10.50;99.90;;;;;;5013235;28;20227;-84
2022/10/05 08:08:57;;;;;;;5.83;5.07;;;10.60;99.90;;;;;;5012900;28;20215;-86
2022/10/05 08:11:38;;;;;;;5.30;4.80;;;10.80;99.90;;;;;;5012552;28;20190;-86
2022/10/05 08:14:20;;;;;;;5.27;4.77;;;10.90;99.90;;;;;;5011816;28;20184;-86
2022/10/05 08:16:47;;;;;;;5.90;5.13;;;11.10;99.90;;;;;;5011318;28;20218;-86
2022/10/05 08:19:18;;;;;;;6.07;5.43;;;11.30;99.90;;;;;;5008619;28;20187;-87
2022/10/05 08:21:49;;;;;;;5.97;5.40;;;11.60;99.90;;;;;;4979465;28;20300;-86
2022/10/05 08:24:30;;;;;;;6.63;5.93;;;11.80;99.90;;;;;;4995572;28;20189;-86
2022/10/05 08:27:15;;;;;;;6.13;5.53;;;11.90;99.90;;;;;;4978722;28;20258;-86
2022/10/05 08:29:53;;;;;;;6.67;5.97;;;12.10;99.90;;;;;;5011602;28;20185;-86
2022/10/05 08:32:27;;;;;;;7.50;5.60;;;12.30;99.90;;;;;;4979065;28;20227;-86
2022/10/05 08:35:21;;;;;;;6.53;5.60;;;12.50;99.90;;;;;;4995180;28;20221;-86
2022/10/05 08:37:48;;;;;;;7.03;5.87;;;12.70;99.90;;;;;;5010635;28;20191;-86
2022/10/05 08:40:35;;;;;;;6.03;5.43;;;12.90;99.90;;;;;;4995055;28;20686;-86
2022/10/05 08:43:22;;;;;;;6.93;5.77;;;13.10;99.90;;;;;;4978641;28;20278;-86
2022/10/05 08:46:13;;;;;;;6.13;5.33;;;13.20;99.90;;;;;;4978352;28;20226;-86
2022/10/05 08:48:45;;;;;;;5.60;5.10;;;13.40;99.90;;;;;;4978469;28;20198;-86
2022/10/05 08:51:23;;;;;;;5.23;4.70;;;13.50;99.90;;;;;;4978634;28;20205;-86
2022/10/05 08:54:04;;;;;;;6.00;5.40;;;13.70;99.90;;;;;;4978387;28;20186;-86
2022/10/05 08:56:41;;;;;;;5.53;5.03;;;13.80;99.90;;;;;;4978135;28;20230;-86
2022/10/05 08:59:44;;;;;;;5.67;5.13;;;14.00;99.90;;;;;;5011235;28;20179;-86
2022/10/05 09:02:36;;;;;;;5.33;4.77;;;14.10;99.90;;;;;;4978501;28;20333;-86
2022/10/05 09:05:14;;;;;;;6.97;4.73;;;14.30;99.90;;;;;;4978495;28;20274;-86
2022/10/05 09:07:52;;;;;;;5.43;4.87;;;14.50;99.90;;;;;;4978243;28;20179;-87
2022/10/05 09:10:42;;;;;;;5.17;4.63;;;14.60;99.90;;;;;;5018624;28;20187;-87
2022/10/05 09:13:22;;;;;;;5.73;4.80;;;14.80;99.90;;;;;;5025240;28;20183;-87
2022/10/05 09:16:03;;;;;;;8.43;4.97;;;15.00;99.90;;;;;;5029952;28;20234;-89
2022/10/05 09:18:48;;;;;;;5.03;4.53;;;15.10;99.90;;;;;;5025805;28;20190;-89
2022/10/05 09:21:39;;;;;;;6.07;4.60;;;15.20;99.90;;;;;;5025421;28;20217;-88
2022/10/05 09:24:24;;;;;;;7.50;5.37;;;15.40;99.90;;;;;;5027458;28;20202;-88
2022/10/05 09:27:13;;;;;;;6.20;5.30;;;15.50;99.90;;;;;;5009682;28;20211;-89
2022/10/05 09:30:12;;;;;;;5.37;4.87;;;15.70;99.90;;;;;;4993805;28;20183;-89
2022/10/05 09:33:09;;;;;;;6.03;4.40;;;15.80;99.90;;;;;;5010153;28;20225;-89
2022/10/05 09:36:00;;;;;;;5.90;4.70;;;16.00;99.90;;;;;;5010269;28;20207;-87
2022/10/05 09:38:45;;;;;;;6.57;4.13;;;16.10;99.90;;;;;;4975521;28;20183;-85
2022/10/05 09:41:28;;;;;;;5.88;4.10;;;16.20;99.90;;;;;;5013389;28;20206;-85
2022/10/05 09:44:19;;;;;;;5.50;4.37;;;16.30;99.90;;;;;;4996787;28;20214;-85
2022/10/05 09:47:00;;;;;;;6.20;4.50;;;16.40;99.90;;;;;;5009845;28;20230;-85
2022/10/05 09:49:43;;;;;;;4.87;4.40;;;16.50;99.90;;;;;;4977843;28;20266;-85
2022/10/05 09:52:31;;;;;;;4.35;3.95;;;16.60;99.90;;;;;;5009406;28;20190;-85
2022/10/05 09:55:17;;;;;;;4.38;3.92;;;16.70;99.90;;;;;;5010062;28;20207;-85
2022/10/05 09:58:01;;;;;;;4.28;3.95;;;16.80;99.90;;;;;;4995511;28;20179;-86
2022/10/05 10:00:27;;;;;;;4.97;3.67;;;17.00;99.90;;;;;;5011616;28;20257;-86
2022/10/05 10:03:11;;;;;;;3.70;3.40;;;17.10;99.90;;;;;;5011795;28;20179;-86
2022/10/05 10:05:54;;;;;;;3.92;3.60;;;17.20;99.90;;;;;;5011439;28;20199;-86
2022/10/05 10:08:44;;;;;;;6.45;3.67;;;17.40;99.90;;;;;;5009430;28;20242;-87
2022/10/05 10:11:23;;;;;;;4.32;3.85;;;17.50;99.90;;;;;;5025995;28;20179;-87
2022/10/05 10:14:18;;;;;;;6.70;3.95;;;17.50;99.90;;;;;;5005927;28;20191;-87
2022/10/05 10:16:44;;;;;;;4.00;3.22;;;17.70;99.90;;;;;;4973617;28;20211;-87
2022/10/05 10:19:16;;;;;;;4.03;3.63;;;17.80;99.90;;;;;;4990142;28;20176;-86
2022/10/05 10:22:01;;;;;;;3.30;2.97;;;18.00;99.90;;;;;;4999798;28;20222;-87
2022/10/05 10:25:02;;;;;;;4.68;3.50;;;18.20;99.90;;;;;;5030618;28;20697;-78
2022/10/05 10:28:18;;;;;;;3.47;3.17;;;18.30;99.90;;;;;;5006693;28;20205;-80
2022/10/05 10:30:51;;;;;;;4.00;3.08;;;18.50;99.90;;;;;;5010273;28;20620;-86
2022/10/05 10:33:45;;;;;;;3.20;2.60;;;18.70;99.90;;;;;;4981389;28;20195;-86
2022/10/05 10:36:31;;;;;;;4.55;2.53;;;18.80;99.90;;;;;;5008456;28;20213;-86
2022/10/05 10:39:33;;;;;;;3.15;2.78;;;19.00;99.90;;;;;;5027442;28;20229;-86
2022/10/05 10:42:08;;;;;;;8.15;2.97;;;19.10;99.90;;;;;;5000910;28;20283;-86
2022/10/05 10:44:43;;;;;;;6.45;3.10;;;19.20;99.90;;;;;;5000223;28;20218;-87
2022/10/05 10:47:34;;;;;;;2.40;2.20;;;19.40;99.90;;;;;;4982675;28;20562;-86
2022/10/05 10:50:25;;;;;;;3.38;2.75;;;19.60;99.90;;;;;;4999046;28;20183;-86
2022/10/05 10:53:12;;;;;;;3.15;2.80;;;19.70;99.90;;;;;;5011850;28;20184;-86
2022/10/05 10:56:01;;;;;;;2.70;2.50;;;19.80;99.90;;;;;;5007885;28;20207;-86
2022/10/05 10:58:33;;;;;;;3.75;2.47;;;20.00;99.90;;;;;;5016491;28;20163;-86
2022/10/05 11:01:26;;;;;;;3.72;2.53;;;20.20;99.90;;;;;;5013624;28;20214;-87
2022/10/05 11:04:08;;;;;;;3.22;2.47;;;20.30;99.90;;;;;;4979262;28;20260;-86
2022/10/05 11:07:04;;;;;;;3.03;2.55;;;20.50;99.90;;;;;;4979061;28;20267;-86
2022/10/05 11:09:48;;;;;;;4.32;2.70;;;20.70;99.90;;;;;;4998882;28;20178;-87
2022/10/05 11:12:51;;;;;;;6.00;2.70;;;20.80;99.90;;;;;;5010805;28;20282;-86
2022/10/05 11:15:43;;;;;;;2.75;2.33;;;21.00;99.90;;;;;;5017821;28;20186;-87
2022/10/05 11:18:38;;;;;;;4.03;2.47;;;21.10;99.90;;;;;;5017131;28;20181;-86
2022/10/05 11:21:45;;;;;;;2.45;2.00;;;21.20;99.90;;;;;;5013708;28;20253;-86
2022/10/05 11:24:55;;;;;;;2.97;2.25;;;21.20;99.90;;;;;;4971028;28;20191;-86
2022/10/05 11:27:37;;;;;;;2.53;2.10;;;21.40;99.90;;;;;;4996699;28;20197;-86
2022/10/05 11:30:21;;;;;;;3.85;2.45;;;21.60;99.90;;;;;;5034303;28;20179;-86
2022/10/05 11:33:25;;;;;;;4.25;2.03;;;21.80;99.90;;;;;;5033587;28;20301;-86
2022/10/05 11:36:19;;;;;;;2.45;2.25;;;21.90;99.90;;;;;;5021913;28;20223;-86
2022/10/05 11:39:19;;;;;;;3.10;2.30;;;22.00;99.90;;;;;;5013301;28;20176;-87
2022/10/05 11:41:45;;;;;;;3.25;2.10;;;22.00;99.90;;;;;;5032843;28;20198;-86
2022/10/05 11:44:34;;;;;;;3.13;2.50;;;22.10;99.90;;;;;;5001101;28;20179;-86
2022/10/05 11:47:26;;;;;;;2.70;2.35;;;22.10;99.90;;;;;;5033487;28;20194;-87
2022/10/05 11:50:26;;;;;;;2.47;2.17;;;22.30;99.90;;;;;;5033162;28;20175;-86
2022/10/05 11:53:00;;;;;;;2.92;2.33;;;22.50;99.90;;;;;;5030561;28;20185;-87
2022/10/05 11:55:31;;;;;;;2.40;2.17;;;22.60;99.90;;;;;;4997736;28;20671;-86
2022/10/05 11:58:29;;;;;;;3.72;2.30;;;22.70;99.90;;;;;;4981270;28;20172;-87
2022/10/05 12:01:23;;;;;;;3.30;2.15;;;22.70;99.90;;;;;;4965427;28;20217;-86
2022/10/05 12:04:16;;;;;;;5.13;1.90;;;22.90;99.90;;;;;;4992946;28;20265;-87
2022/10/05 12:06:53;;;;;;;2.00;1.80;;;23.00;99.90;;;;;;4980823;28;20199;-87
2022/10/05 12:10:21;;;;;;;2.58;1.75;;;23.10;99.90;;;;;;4998550;28;20178;-86
2022/10/05 12:13:07;;;;;;;3.15;1.65;;;23.30;99.90;;;;;;4984171;28;20184;-86
2022/10/05 12:15:47;;;;;;;2.47;1.50;;;23.40;99.90;;;;;;5018448;28;20244;-87
2022/10/05 12:18:26;;;;;;;2.35;1.77;;;23.50;99.90;;;;;;5002431;28;20326;-87
2022/10/05 12:20:56;;;;;;;1.40;1.30;;;23.60;99.90;;;;;;4997004;28;20221;-87
2022/10/05 12:23:33;;;;;;;1.90;1.52;;;23.70;99.90;;;;;;4999632;28;20286;-87
2022/10/05 12:26:27;;;;;;;1.42;1.33;;;23.90;99.90;;;;;;4996617;28;20199;-87
2022/10/05 12:29:15;;;;;;;2.38;1.42;;;24.00;99.90;;;;;;4967554;28;20191;-87
2022/10/05 12:32:10;;;;;;;1.65;1.20;;;24.10;99.90;;;;;;5011042;28;20294;-87
2022/10/05 12:35:21;;;;;;;1.35;1.20;;;24.00;99.90;;;;;;5013171;28;20241;-87
2022/10/05 12:37:53;;;;;;;1.10;1.00;;;24.00;99.90;;;;;;4932602;29;20185;-87
2022/10/05 12:40:34;;;;;;;3.45;1.48;;;23.90;99.90;;;;;;4991171;28;20263;-87
2022/10/05 12:43:03;;;;;;;2.90;1.20;;;23.90;99.90;;;;;;4995096;28;20258;-87
2022/10/05 12:45:35;;;;;;;1.00;0.90;;;24.00;99.90;;;;;;4996735;28;20246;-87
2022/10/05 12:48:07;;;;;;;1.38;0.70;;;24.10;99.90;;;;;;4993933;28;20267;-87
2022/10/05 12:50:41;;;;;;;1.75;0.70;;;24.10;99.90;;;;;;5012462;28;20183;-87
2022/10/05 12:53:13;;;;;;;2.40;0.80;;;24.10;99.90;;;;;;4980171;28;20260;-87
2022/10/05 12:55:44;;;;;;;0.88;0.77;;;24.10;99.90;;;;;;4994437;28;20241;-87
2022/10/05 12:58:25;;;;;;;1.13;0.80;;;24.10;99.90;;;;;;5010334;28;20208;-87
2022/10/05 13:01:04;;;;;;;1.77;0.80;;;24.10;99.90;;;;;;5002968;28;20282;-87
2022/10/05 13:03:37;;;;;;;1.95;0.75;;;24.10;99.90;;;;;;4997624;28;20178;-87
2022/10/05 13:06:39;;;;;;;1.13;0.93;;;24.10;99.90;;;;;;5109281;27;20597;-41
2022/10/05 13:09:35;;;;;;;0.70;0.70;;;24.10;99.90;;;;;;5068445;28;20191;-41
2022/10/05 13:12:19;;;;;;;0.80;0.80;;;24.20;99.90;;;;;;5087463;28;20222;-40
2022/10/05 13:14:54;;;;;;;1.05;0.90;;;24.30;99.90;;;;;;5110618;28;20193;-41
2022/10/05 13:17:34;;;;;;;2.08;0.80;;;24.30;99.90;;;;;;5095314;28;20215;-39
2022/10/05 13:20:21;;;;;;;1.63;0.60;;;24.30;99.90;;;;;;5077430;28;20179;-41
2022/10/05 13:23:11;;;;;;;2.72;0.80;;;24.40;99.90;;;;;;5110432;28;20179;-41
2022/10/05 13:25:45;;;;;;;0.70;0.70;;;24.50;99.90;;;;;;5127374;28;20246;-40
2022/10/05 13:28:19;;;;;;;0.70;0.70;;;24.50;99.90;;;;;;5099267;27;20175;-41
2022/10/05 13:30:56;;;;;;;1.55;0.80;;;24.50;99.90;;;;;;5098137;27;20209;-41
2022/10/05 13:33:50;;;;;;;0.80;0.80;;;24.60;99.90;;;;;;5106492;28;20182;-41
2022/10/05 13:36:39;;;;;;;2.30;0.80;;;24.70;99.90;;;;;;5085813;28;20172;-39
2022/10/05 13:39:40;;;;;;;2.47;0.73;;;24.80;99.90;;;;;;5085454;27;20658;-41
2022/10/05 13:42:25;;;;;;;1.58;0.70;;;24.80;99.90;;;;;;5097815;28;20216;-40
2022/10/05 13:45:02;;;;;;;0.80;0.80;;;25.00;99.90;;;;;;5112177;27;20233;-39
2022/10/05 13:47:27;;;;;;;1.13;0.80;;;25.10;99.90;;;;;;5116324;28;20172;-39
2022/10/05 13:50:02;;;;;;;1.50;1.00;;;25.20;99.90;;;;;;5112474;28;20176;-40
2022/10/05 13:52:55;;;;;;;1.13;0.70;;;25.20;99.90;;;;;;5099528;28;20239;-40
2022/10/05 13:55:56;;;;;;;1.60;0.68;;;25.40;99.90;;;;;;5087148;27;20218;-41
2022/10/05 13:58:39;;;;;;;0.88;0.80;;;25.40;99.90;;;;;;5031102;28;20178;-41
2022/10/05 14:01:28;;;;;;;0.90;0.90;;;25.60;99.90;;;;;;5100606;28;20214;-37
2022/10/05 14:04:15;;;;;;;1.00;0.70;;;25.60;99.90;;;;;;5113078;27;20178;-41
2022/10/05 14:06:42;;;;;;;1.42;0.70;;;25.60;99.90;;;;;;5109448;28;20171;-41
2022/10/05 14:09:26;;;;;;;3.15;1.08;;;25.60;99.90;;;;;;5108613;28;20185;-40
2022/10/05 14:12:04;;;;;;;2.17;0.75;;;25.70;99.90;;;;;;5126143;27;20198;-40
2022/10/05 14:14:32;;;;;;;1.33;0.90;;;25.60;99.90;;;;;;5110495;28;20211;-41
2022/10/05 14:17:02;;;;;;;0.70;0.70;;;25.50;99.90;;;;;;5106973;27;20184;-39
2022/10/05 14:19:44;;;;;;;2.15;0.80;;;25.50;99.90;;;;;;5084607;28;20185;-39
2022/10/05 14:22:21;;;;;;;1.00;1.00;;;25.50;99.90;;;;;;5088440;28;20207;-41